ヤンゴン の空港の天気 - METARとTAF

ヤンゴン国際空港 ( VYYY / RGN ) - ミャンマー ヤンゴン
飛行場実況気象(Metar)
観測時間08/05 01:30 +0630 (08/04 19:00 UTC)
風向・風速南南東 4m/s
視程6000m
天気現象
全天の4割程度の雲 雲底高度 550m
少しの雲 雲底高度 760m
全天の8割程度の雲 雲底高度 3050m
気温26℃
湿度94%
気圧1000hPa
METARVYYY 041900Z 16008KT 6000 SCT018 FEW025CB BKN100 26/25 Q1000
過去の天気等 Google飛行場航空写真 Wunderground天気予報

過去48時間のMETAR

飛行場予報(TAF)
発表時間: 8/04 23:30 +0630 (8/04 17:00 UTC)
予報対象時間: 5日0時 +0630 ~ 6日0時 +0630
風向・風速南 3m/s
視程7000m
全天の8割程度の雲 雲底高度 550m
少しの積乱雲 雲底高度 610m
全天の8割程度の雲 雲底高度 3050m
5日0時 +0630 ~ 5日6時 +0630 に一時的に
風向・風速南南西 3m/s
視程5000m
天気現象弱い雨
全天の8割程度の雲 雲底高度 490m
少しの積乱雲 雲底高度 550m
全天の8割程度の雲 雲底高度 2740m
TAF VYYY 041700Z 0418/0518 19005KT 7000 BKN018 FEW020CB BKN100
TEMPO 0418/0424 20005KT 5000 -RA BKN016 FEW018CB BKN090